createdAt,value
2018-04-28T00:00:41.890Z,10.4
2018-04-28T00:01:44.282Z,10.4
2018-04-28T00:02:46.667Z,10.4
2018-04-28T00:03:49.339Z,10.4
2018-04-28T00:04:51.872Z,10.4
2018-04-28T00:05:54.246Z,10.4
2018-04-28T00:06:56.788Z,10.4
2018-04-28T00:07:59.199Z,10.4
2018-04-28T00:09:01.928Z,10.3
2018-04-28T00:10:04.342Z,10.3
2018-04-28T00:11:06.725Z,10.3
2018-04-28T00:12:09.103Z,10.3
2018-04-28T00:13:11.489Z,10.3
2018-04-28T00:14:14.148Z,10.3
2018-04-28T00:15:16.534Z,10.3
2018-04-28T00:16:19.050Z,10.3
2018-04-28T00:17:21.583Z,10.2
2018-04-28T00:18:23.952Z,10.3
2018-04-28T00:19:26.537Z,10.2
2018-04-28T00:20:29.384Z,10.2
2018-04-28T00:21:31.759Z,10.2
2018-04-28T00:22:34.146Z,10.2
2018-04-28T00:23:36.836Z,10.2
2018-04-28T00:24:39.790Z,10.2
2018-04-28T00:25:42.184Z,10.2
2018-04-28T00:26:44.559Z,10.2
2018-04-28T00:27:46.942Z,10.2
2018-04-28T00:28:49.335Z,10.1
2018-04-28T00:29:52.378Z,10.1
2018-04-28T00:30:55.050Z,10.1
2018-04-28T00:31:57.432Z,10.1
2018-04-28T00:33:00.197Z,10.1
2018-04-28T00:34:02.864Z,10.1
2018-04-28T00:35:05.250Z,10.1
2018-04-28T00:36:07.625Z,10.1
2018-04-28T00:37:10.015Z,10.1
2018-04-28T00:38:12.392Z,10.1
2018-04-28T00:39:15.084Z,10
2018-04-28T00:40:17.471Z,10
2018-04-28T00:41:19.837Z,10
2018-04-28T00:42:22.225Z,10
2018-04-28T00:43:24.902Z,10
2018-04-28T00:44:27.587Z,10
2018-04-28T00:45:29.968Z,10
2018-04-28T00:46:32.352Z,10
2018-04-28T00:47:35.014Z,10
2018-04-28T00:48:37.402Z,10
2018-04-28T00:49:39.792Z,9.9
2018-04-28T00:50:42.165Z,9.9
2018-04-28T00:51:44.539Z,9.9
2018-04-28T00:52:47.862Z,9.9
2018-04-28T00:53:50.248Z,9.9
2018-04-28T00:54:52.630Z,9.9
2018-04-28T00:55:55.291Z,9.9
2018-04-28T00:56:57.951Z,9.9
2018-04-28T00:58:00.616Z,9.9
2018-04-28T00:59:03.000Z,9.9
2018-04-28T01:00:05.387Z,9.9
2018-04-28T01:01:08.061Z,9.9
2018-04-28T01:02:10.447Z,9.9
2018-04-28T01:03:12.832Z,9.9
2018-04-28T01:04:15.501Z,9.9
2018-04-28T01:05:18.183Z,9.9
2018-04-28T01:06:20.563Z,9.8
2018-04-28T01:07:23.321Z,9.8
2018-04-28T01:08:25.996Z,9.8
2018-04-28T01:09:28.651Z,9.8
2018-04-28T01:10:31.027Z,9.8
2018-04-28T01:11:33.413Z,9.8
2018-04-28T01:12:35.792Z,9.8
2018-04-28T01:13:38.178Z,9.9
2018-04-28T01:14:40.569Z,9.8
2018-04-28T01:15:42.933Z,9.8
2018-04-28T01:16:45.608Z,9.8
2018-04-28T01:17:48.001Z,9.8
2018-04-28T01:18:50.374Z,9.8
2018-04-28T01:19:52.755Z,9.8
2018-04-28T01:20:55.129Z,9.8
2018-04-28T01:21:57.519Z,9.8
2018-04-28T01:22:59.900Z,9.8
2018-04-28T01:24:02.685Z,9.8
2018-04-28T01:25:05.374Z,9.8
2018-04-28T01:26:08.019Z,9.8
2018-04-28T01:27:10.413Z,9.7
2018-04-28T01:28:12.791Z,9.7
2018-04-28T01:29:15.550Z,9.7
2018-04-28T01:30:17.934Z,9.7
2018-04-28T01:31:20.598Z,9.7
2018-04-28T01:32:23.275Z,9.7
2018-04-28T01:33:25.951Z,9.7
2018-04-28T01:34:28.334Z,9.7
2018-04-28T01:35:30.992Z,9.7
2018-04-28T01:36:33.374Z,9.7
2018-04-28T01:37:35.752Z,9.6
2018-04-28T01:38:38.128Z,9.6
2018-04-28T01:39:40.523Z,9.6
2018-04-28T01:40:43.188Z,9.6
2018-04-28T01:41:45.580Z,9.6
2018-04-28T01:42:47.962Z,9.6
2018-04-28T01:43:50.617Z,9.6
2018-04-28T01:44:52.998Z,9.6
2018-04-28T01:45:55.691Z,9.6
2018-04-28T01:46:58.069Z,9.6
2018-04-28T01:48:00.503Z,9.6
2018-04-28T01:49:02.849Z,9.6
2018-04-28T01:50:05.230Z,9.5
2018-04-28T01:51:07.597Z,9.5
2018-04-28T01:52:09.983Z,9.5
2018-04-28T01:53:12.376Z,9.5
2018-04-28T01:54:14.761Z,9.5
2018-04-28T01:55:17.141Z,9.4
2018-04-28T01:56:19.515Z,9.4
2018-04-28T01:57:22.170Z,9.4
2018-04-28T01:58:24.857Z,9.4
2018-04-28T01:59:27.238Z,9.4
2018-04-28T02:00:29.614Z,9.4
2018-04-28T02:01:32.278Z,9.4
2018-04-28T02:02:34.930Z,9.5
2018-04-28T02:03:37.318Z,9.4
2018-04-28T02:04:39.693Z,9.4
2018-04-28T02:05:42.728Z,9.4
2018-04-28T02:06:45.115Z,9.4
2018-04-28T02:07:47.497Z,9.4
2018-04-28T02:08:49.883Z,9.4
2018-04-28T02:09:52.268Z,9.3
2018-04-28T02:10:55.310Z,9.3
2018-04-28T02:11:57.691Z,9.3
2018-04-28T02:13:00.088Z,9.3
2018-04-28T02:14:02.467Z,9.2
2018-04-28T02:15:04.839Z,9.2
2018-04-28T02:16:07.520Z,9.2
2018-04-28T02:17:09.895Z,9.2
2018-04-28T02:18:12.283Z,9.1
2018-04-28T02:19:14.660Z,9.1
2018-04-28T02:20:17.336Z,9.1
2018-04-28T02:21:19.709Z,9.1
2018-04-28T02:22:22.086Z,9
2018-04-28T02:23:24.462Z,9.1
2018-04-28T02:24:26.846Z,9.1
2018-04-28T02:25:29.505Z,9.1
2018-04-28T02:26:32.178Z,9.1
2018-04-28T02:27:34.558Z,9
2018-04-28T02:28:37.226Z,9
2018-04-28T02:29:39.610Z,9
2018-04-28T02:30:42.295Z,9
2018-04-28T02:31:45.341Z,9
2018-04-28T02:32:47.739Z,9
2018-04-28T02:33:50.493Z,9
2018-04-28T02:34:52.876Z,8.9
2018-04-28T02:35:55.549Z,8.9
2018-04-28T02:36:57.925Z,8.9
2018-04-28T02:38:00.595Z,8.9
2018-04-28T02:39:03.684Z,8.9
2018-04-28T02:40:06.064Z,8.9
2018-04-28T02:41:08.751Z,8.9
2018-04-28T02:42:11.409Z,8.9
2018-04-28T02:43:14.736Z,8.8
2018-04-28T02:44:17.115Z,8.8
2018-04-28T02:45:19.882Z,8.7
2018-04-28T02:46:22.273Z,8.7
2018-04-28T02:47:24.929Z,8.6
2018-04-28T02:48:27.886Z,8.6
2018-04-28T02:49:30.654Z,8.6
2018-04-28T02:50:33.034Z,8.6
2018-04-28T02:51:35.690Z,8.6
2018-04-28T02:52:38.361Z,8.6
2018-04-28T02:53:40.742Z,8.6
2018-04-28T02:54:44.399Z,8.6
2018-04-28T02:55:46.769Z,8.6
2018-04-28T02:56:49.540Z,8.5
2018-04-28T02:57:51.930Z,8.5
2018-04-28T02:58:54.618Z,8.5
2018-04-28T02:59:57.008Z,8.5
2018-04-28T03:00:59.959Z,8.5
2018-04-28T03:02:02.340Z,8.5
2018-04-28T03:03:04.730Z,8.5
2018-04-28T03:04:07.399Z,8.5
2018-04-28T03:05:09.778Z,8.4
2018-04-28T03:06:12.440Z,8.4
2018-04-28T03:07:15.128Z,8.4
2018-04-28T03:08:18.475Z,8.3
2018-04-28T03:09:21.147Z,8.3
2018-04-28T03:10:23.924Z,8.1
2018-04-28T03:11:26.582Z,8
2018-04-28T03:12:28.973Z,7.9
2018-04-28T03:13:31.935Z,7.9
2018-04-28T03:14:34.305Z,7.9
2018-04-28T03:15:36.702Z,8
2018-04-28T03:16:39.084Z,8
2018-04-28T03:17:41.471Z,8
2018-04-28T03:18:44.130Z,8
2018-04-28T03:19:46.529Z,8
2018-04-28T03:20:49.185Z,7.9
2018-04-28T03:21:51.559Z,7.8
2018-04-28T03:22:53.937Z,7.6
2018-04-28T03:23:56.318Z,7.6
2018-04-28T03:24:58.985Z,7.6
2018-04-28T03:26:01.369Z,7.6
2018-04-28T03:27:03.746Z,7.6
2018-04-28T03:28:06.519Z,7.5
2018-04-28T03:29:08.910Z,7.4
2018-04-28T03:30:11.678Z,7.5
2018-04-28T03:31:14.346Z,7.5
2018-04-28T03:32:16.733Z,7.5
2018-04-28T03:33:19.123Z,7.4
2018-04-28T03:34:21.516Z,7.4
2018-04-28T03:35:24.464Z,7.4
2018-04-28T03:36:27.122Z,7.4
2018-04-28T03:37:29.495Z,7.4
2018-04-28T03:38:31.885Z,7.5
2018-04-28T03:39:34.259Z,7.5
2018-04-28T03:40:36.635Z,7.4
2018-04-28T03:41:39.021Z,7.5
2018-04-28T03:42:41.400Z,7.4
2018-04-28T03:43:43.778Z,7.4
2018-04-28T03:44:46.466Z,7.4
2018-04-28T03:45:48.833Z,7.4
2018-04-28T03:46:51.212Z,7.4
2018-04-28T03:47:53.595Z,7.4
2018-04-28T03:48:55.973Z,7.4
2018-04-28T03:49:58.354Z,7.4
2018-04-28T03:51:00.737Z,7.4
2018-04-28T03:52:03.119Z,7.4
2018-04-28T03:53:05.867Z,7.4
2018-04-28T03:54:08.651Z,7.5
2018-04-28T03:55:11.031Z,7.5
2018-04-28T03:56:13.418Z,7.4
2018-04-28T03:57:15.810Z,7.4
2018-04-28T03:58:18.192Z,7.4
2018-04-28T03:59:20.572Z,7.4
2018-04-28T04:00:22.959Z,7.3
2018-04-28T04:01:25.632Z,7.3
2018-04-28T04:02:28.020Z,7.3
2018-04-28T04:03:30.774Z,7.2
2018-04-28T04:04:33.455Z,7
2018-04-28T04:05:35.824Z,7
2018-04-28T04:06:38.213Z,6.9
2018-04-28T04:07:40.590Z,6.9
2018-04-28T04:08:42.972Z,6.9
2018-04-28T04:09:45.636Z,7
2018-04-28T04:10:48.300Z,6.9
2018-04-28T04:11:50.980Z,6.9
2018-04-28T04:12:53.656Z,6.9
2018-04-28T04:13:56.027Z,6.8
2018-04-28T04:14:58.410Z,6.8
2018-04-28T04:16:01.071Z,6.9
2018-04-28T04:17:03.452Z,6.9
2018-04-28T04:18:05.882Z,6.9
2018-04-28T04:19:08.199Z,6.9
2018-04-28T04:20:10.859Z,6.8
2018-04-28T04:21:13.630Z,6.8
2018-04-28T04:22:16.019Z,6.8
2018-04-28T04:23:18.395Z,6.8
2018-04-28T04:24:21.443Z,6.8
2018-04-28T04:25:23.829Z,6.8
2018-04-28T04:26:26.610Z,6.8
2018-04-28T04:27:28.902Z,6.8
2018-04-28T04:28:31.265Z,6.8
2018-04-28T04:29:33.646Z,6.8
2018-04-28T04:30:36.022Z,6.8
2018-04-28T04:31:38.701Z,6.8
2018-04-28T04:32:41.081Z,6.8
2018-04-28T04:33:43.467Z,6.9
2018-04-28T04:34:46.433Z,6.9
2018-04-28T04:35:49.105Z,6.8
2018-04-28T04:36:51.481Z,6.8
2018-04-28T04:37:54.250Z,6.8
2018-04-28T04:38:56.636Z,6.8
2018-04-28T04:39:59.015Z,6.9
2018-04-28T04:41:01.395Z,6.9
2018-04-28T04:42:03.777Z,6.9
2018-04-28T04:43:06.442Z,7
2018-04-28T04:44:08.821Z,7.1
2018-04-28T04:45:11.196Z,7
2018-04-28T04:46:13.575Z,7.1
2018-04-28T04:47:15.952Z,7.1
2018-04-28T04:48:18.334Z,7.1
2018-04-28T04:49:20.717Z,7.1
2018-04-28T04:50:23.097Z,7.1
2018-04-28T04:51:25.486Z,7.1
2018-04-28T04:52:28.829Z,7.2
2018-04-28T04:53:31.205Z,7.3
2018-04-28T04:54:33.869Z,7.3
2018-04-28T04:55:36.532Z,7.3
2018-04-28T04:56:39.300Z,7.3
2018-04-28T04:57:41.676Z,7.3
2018-04-28T04:58:44.061Z,7.3
2018-04-28T04:59:46.429Z,7.3
2018-04-28T05:00:48.823Z,7.4
2018-04-28T05:01:51.190Z,7.4
2018-04-28T05:02:53.576Z,7.5
2018-04-28T05:03:56.349Z,7.6
2018-04-28T05:04:58.734Z,7.7
2018-04-28T05:06:01.115Z,7.8
2018-04-28T05:07:03.493Z,7.8
2018-04-28T05:08:06.547Z,7.9
2018-04-28T05:09:08.934Z,7.9
2018-04-28T05:10:11.314Z,8.1
2018-04-28T05:11:13.682Z,8.2
2018-04-28T05:12:16.057Z,8.3
2018-04-28T05:13:18.440Z,8.4
2018-04-28T05:14:21.771Z,8.5
2018-04-28T05:15:24.148Z,8.5
2018-04-28T05:16:27.117Z,8.6
2018-04-28T05:17:29.881Z,8.6
2018-04-28T05:18:32.548Z,8.6
2018-04-28T05:19:34.929Z,8.7
2018-04-28T05:20:37.316Z,8.8
2018-04-28T05:21:39.698Z,8.8
2018-04-28T05:22:42.092Z,8.9
2018-04-28T05:23:44.461Z,8.9
2018-04-28T05:24:46.847Z,9
2018-04-28T05:25:49.236Z,9
2018-04-28T05:26:51.617Z,9
2018-04-28T05:27:54.002Z,9.1
2018-04-28T05:28:56.667Z,9.1
2018-04-28T05:29:59.046Z,9.2
2018-04-28T05:31:01.420Z,9.2
2018-04-28T05:32:03.797Z,9.3
2018-04-28T05:33:06.182Z,9.3
2018-04-28T05:34:08.559Z,9.4
2018-04-28T05:35:10.952Z,9.4
2018-04-28T05:36:13.712Z,9.4
2018-04-28T05:37:16.095Z,9.4
2018-04-28T05:38:18.469Z,9.5
2018-04-28T05:39:21.137Z,9.6
2018-04-28T05:40:23.525Z,9.6
2018-04-28T05:41:26.309Z,9.7
2018-04-28T05:42:29.735Z,9.7
2018-04-28T05:43:32.408Z,9.8
2018-04-28T05:44:34.814Z,9.8
2018-04-28T05:45:37.486Z,9.9
2018-04-28T05:46:40.153Z,9.9
2018-04-28T05:47:42.542Z,10
2018-04-28T05:48:44.932Z,10
2018-04-28T05:49:47.304Z,10.1
2018-04-28T05:50:49.689Z,10.1
2018-04-28T05:51:52.641Z,10.2
2018-04-28T05:52:55.302Z,10.1
2018-04-28T05:53:57.680Z,10.2
2018-04-28T05:55:00.066Z,10.2
2018-04-28T05:56:02.436Z,10.2
2018-04-28T05:57:04.826Z,10.3
2018-04-28T05:58:07.204Z,10.3
2018-04-28T05:59:09.573Z,10.3
2018-04-28T06:00:12.251Z,10.4
2018-04-28T06:01:14.633Z,10.4
2018-04-28T06:02:17.296Z,10.4
2018-04-28T06:03:19.707Z,10.4
2018-04-28T06:04:22.075Z,10.5
2018-04-28T06:05:24.457Z,10.5
2018-04-28T06:06:27.222Z,10.5
2018-04-28T06:07:29.986Z,10.5
2018-04-28T06:08:32.371Z,10.6
2018-04-28T06:09:34.758Z,10.6
2018-04-28T06:10:37.131Z,10.6
2018-04-28T06:11:39.523Z,10.6
2018-04-28T06:12:41.912Z,10.7
2018-04-28T06:13:44.297Z,10.7
2018-04-28T06:14:46.678Z,10.7
2018-04-28T06:15:49.084Z,10.8
2018-04-28T06:16:51.739Z,10.8
2018-04-28T06:17:54.124Z,10.9
2018-04-28T06:18:56.517Z,10.9
2018-04-28T06:19:59.012Z,11
2018-04-28T06:21:01.288Z,11
2018-04-28T06:22:03.677Z,11.1
2018-04-28T06:23:06.333Z,11.1
2018-04-28T06:24:08.717Z,11.1
2018-04-28T06:25:11.107Z,11.1
2018-04-28T06:26:13.482Z,11.1
2018-04-28T06:27:15.861Z,11.1
2018-04-28T06:28:18.250Z,11.2
2018-04-28T06:29:20.629Z,11.2
2018-04-28T06:30:23.296Z,11.3
2018-04-28T06:31:25.678Z,11.3
2018-04-28T06:32:28.058Z,11.3
2018-04-28T06:33:30.733Z,11.4
2018-04-28T06:34:33.418Z,11.3
2018-04-28T06:35:35.808Z,11.4
2018-04-28T06:36:38.476Z,11.4
2018-04-28T06:37:40.866Z,11.5
2018-04-28T06:38:43.529Z,11.5
2018-04-28T06:39:45.911Z,11.5
2018-04-28T06:40:48.296Z,11.6
2018-04-28T06:41:50.666Z,11.7
2018-04-28T06:42:53.061Z,11.7
2018-04-28T06:43:55.439Z,11.7
2018-04-28T06:44:57.828Z,11.7
2018-04-28T06:46:00.206Z,11.7
2018-04-28T06:47:02.602Z,11.8
2018-04-28T06:48:04.981Z,11.8
2018-04-28T06:49:07.648Z,11.8
2018-04-28T06:50:10.030Z,11.9
2018-04-28T06:51:12.415Z,12
2018-04-28T06:52:14.794Z,12.1
2018-04-28T06:53:17.181Z,12.1
2018-04-28T06:54:19.840Z,12.2
2018-04-28T06:55:22.224Z,12.2
2018-04-28T06:56:24.610Z,12.1
2018-04-28T06:57:27.006Z,12.2
2018-04-28T06:58:30.231Z,12.3
2018-04-28T06:59:32.839Z,12.3
2018-04-28T07:00:35.488Z,12.4
2018-04-28T07:01:37.879Z,12.5
2018-04-28T07:02:40.554Z,12.5
2018-04-28T07:03:42.937Z,12.6
2018-04-28T07:04:45.320Z,12.6
2018-04-28T07:05:47.709Z,12.7
2018-04-28T07:06:50.073Z,12.7
2018-04-28T07:07:52.860Z,12.8
2018-04-28T07:08:55.242Z,12.8
2018-04-28T07:09:57.617Z,12.9
2018-04-28T07:11:00.008Z,12.9
2018-04-28T07:12:02.384Z,13
2018-04-28T07:13:04.776Z,13.1
2018-04-28T07:14:07.161Z,13.1
2018-04-28T07:15:09.564Z,13.1
2018-04-28T07:16:12.231Z,13.1
2018-04-28T07:17:14.620Z,13.2
2018-04-28T07:18:17.297Z,13.2
2018-04-28T07:19:19.690Z,13.2
2018-04-28T07:20:22.064Z,13.3
2018-04-28T07:21:24.461Z,13.4
2018-04-28T07:22:27.395Z,13.5
2018-04-28T07:23:29.779Z,13.5
2018-04-28T07:24:32.169Z,13.5
2018-04-28T07:25:34.558Z,13.6
2018-04-28T07:26:37.221Z,13.6
2018-04-28T07:27:39.896Z,13.7
2018-04-28T07:28:42.282Z,13.8
2018-04-28T07:29:44.683Z,13.9
2018-04-28T07:30:47.065Z,13.9
2018-04-28T07:31:49.736Z,14.1
2018-04-28T07:32:52.119Z,14.2
2018-04-28T07:33:54.901Z,14.1
2018-04-28T07:34:57.287Z,14.1
2018-04-28T07:35:59.665Z,14.1
2018-04-28T07:37:02.060Z,14.2
2018-04-28T07:38:05.008Z,14.3
2018-04-28T07:39:07.401Z,14.4
2018-04-28T07:40:10.076Z,14.4
2018-04-28T07:41:12.447Z,14.5
2018-04-28T07:42:14.851Z,14.6
2018-04-28T07:43:17.238Z,14.6
2018-04-28T07:44:19.632Z,14.7
2018-04-28T07:45:22.302Z,14.7
2018-04-28T07:46:25.297Z,14.8
2018-04-28T07:47:27.958Z,14.8
2018-04-28T07:48:30.337Z,14.8
2018-04-28T07:49:32.727Z,14.9
2018-04-28T07:50:35.129Z,14.9
2018-04-28T07:51:37.796Z,14.9
2018-04-28T07:52:40.198Z,14.9
2018-04-28T07:53:42.585Z,15
2018-04-28T07:54:44.985Z,15.1
2018-04-28T07:55:47.381Z,15.2
2018-04-28T07:56:50.046Z,15.1
2018-04-28T07:57:52.435Z,15.2
2018-04-28T07:58:54.830Z,15.2
2018-04-28T07:59:57.527Z,15.3
2018-04-28T08:00:59.920Z,15.3
2018-04-28T08:02:02.769Z,15.3
2018-04-28T08:03:05.147Z,15.3
2018-04-28T08:04:07.537Z,15.4
2018-04-28T08:05:10.233Z,15.6
2018-04-28T08:06:13.041Z,15.8
2018-04-28T08:07:15.405Z,15.8
2018-04-28T08:08:17.816Z,15.7
2018-04-28T08:09:20.493Z,15.9
2018-04-28T08:10:22.895Z,16.1
2018-04-28T08:11:25.284Z,16.3
2018-04-28T08:12:27.666Z,16.5
2018-04-28T08:13:30.064Z,16.7
2018-04-28T08:14:32.445Z,16.7
2018-04-28T08:15:35.120Z,16.9
2018-04-28T08:16:37.511Z,16.8
2018-04-28T08:17:39.888Z,17
2018-04-28T08:18:42.277Z,17
2018-04-28T08:19:44.668Z,17.1
2018-04-28T08:20:47.469Z,17.1
2018-04-28T08:21:50.177Z,17
2018-04-28T08:22:52.562Z,17.2
2018-04-28T08:23:54.948Z,17.5
2018-04-28T08:24:57.346Z,17.7
2018-04-28T08:25:59.741Z,17.8
2018-04-28T08:27:02.425Z,18
2018-04-28T08:28:04.825Z,17.8
2018-04-28T08:29:07.205Z,17.9
2018-04-28T08:30:09.606Z,18
2018-04-28T08:31:11.992Z,18.2
2018-04-28T08:32:14.387Z,18.1
2018-04-28T08:33:16.777Z,18.2
2018-04-28T08:34:19.445Z,18.4
2018-04-28T08:35:22.224Z,18.1
2018-04-28T08:36:24.625Z,18.3
2018-04-28T08:37:27.055Z,18.3
2018-04-28T08:38:29.409Z,18.3
2018-04-28T08:39:31.808Z,18.3
2018-04-28T08:40:34.207Z,18.5
2018-04-28T08:41:36.589Z,18.5
2018-04-28T08:42:38.983Z,18.7
2018-04-28T08:43:41.377Z,18.9
2018-04-28T08:44:43.778Z,18.8
2018-04-28T08:45:46.157Z,18.5
2018-04-28T08:46:49.254Z,18.8
2018-04-28T08:47:51.646Z,18.9
2018-04-28T08:48:54.048Z,19.2
2018-04-28T08:49:56.439Z,19.1
2018-04-28T08:50:59.319Z,19
2018-04-28T08:52:01.639Z,19.1
2018-04-28T08:53:04.028Z,19.5
2018-04-28T08:54:06.715Z,19.3
2018-04-28T08:55:09.129Z,19.6
2018-04-28T08:56:11.517Z,19.3
2018-04-28T08:57:14.216Z,19.5
2018-04-28T08:58:16.612Z,19.9
2018-04-28T08:59:19.292Z,19.5
2018-04-28T09:00:21.954Z,19.3
2018-04-28T09:01:24.660Z,19.7
2018-04-28T09:02:27.067Z,19.8
2018-04-28T09:03:29.465Z,19.9
2018-04-28T09:04:31.860Z,19.9
2018-04-28T09:05:34.261Z,20
2018-04-28T09:06:36.651Z,20
2018-04-28T09:07:39.048Z,20.1
2018-04-28T09:08:41.753Z,20.1
2018-04-28T09:09:44.151Z,19.8
2018-04-28T09:10:46.539Z,20
2018-04-28T09:11:48.930Z,19.9
2018-04-28T09:12:51.333Z,19.9
2018-04-28T09:13:53.767Z,19.7
2018-04-28T09:14:56.158Z,19.7
2018-04-28T09:15:58.551Z,19.9
2018-04-28T09:17:01.024Z,20
2018-04-28T09:18:03.357Z,19.7
2018-04-28T09:19:06.017Z,19.9
2018-04-28T09:20:08.419Z,19.7
2018-04-28T09:21:11.118Z,19.9
2018-04-28T09:22:13.514Z,20
2018-04-28T09:23:15.919Z,20
2018-04-28T09:24:18.311Z,20.1
2018-04-28T09:25:20.720Z,20
2018-04-28T09:26:23.608Z,20
2018-04-28T09:27:26.202Z,19.8
2018-04-28T09:28:28.885Z,19.8
2018-04-28T09:29:31.288Z,19.8
2018-04-28T09:30:33.671Z,19.8
2018-04-28T09:31:36.083Z,19.4
2018-04-28T09:32:38.497Z,19.3
2018-04-28T09:33:40.897Z,19.6
2018-04-28T09:34:43.821Z,19.8
2018-04-28T09:35:46.216Z,19.9
2018-04-28T09:36:48.900Z,20
2018-04-28T09:37:51.315Z,20
2018-04-28T09:38:54.003Z,20.3
2018-04-28T09:39:56.465Z,20.5
2018-04-28T09:40:58.791Z,20.4
2018-04-28T09:42:01.203Z,20.3
2018-04-28T09:43:03.977Z,19.9
2018-04-28T09:44:06.389Z,20.3
2018-04-28T09:45:08.791Z,20.3
2018-04-28T09:46:11.196Z,20.1
2018-04-28T09:47:13.597Z,20.4
2018-04-28T09:48:15.996Z,20.6
2018-04-28T09:49:18.394Z,20.6
2018-04-28T09:50:20.802Z,20.2
2018-04-28T09:51:23.476Z,20.4
2018-04-28T09:52:25.884Z,20.6
2018-04-28T09:53:28.276Z,20.5
2018-04-28T09:54:30.967Z,20.8
2018-04-28T09:55:33.372Z,20.9
2018-04-28T09:56:36.046Z,20.7
2018-04-28T09:57:38.447Z,21
2018-04-28T09:58:41.236Z,20.8
2018-04-28T09:59:43.635Z,20.6
2018-04-28T10:00:46.057Z,20.7
2018-04-28T10:01:49.115Z,20.6
2018-04-28T10:02:52.185Z,20.9
2018-04-28T10:03:54.596Z,20.8
2018-04-28T10:04:56.983Z,20.9
2018-04-28T10:05:59.451Z,20.8
2018-04-28T10:07:02.657Z,20.8
2018-04-28T10:08:05.054Z,20.9
2018-04-28T10:09:07.466Z,21.1
2018-04-28T10:10:09.866Z,20.9
2018-04-28T10:11:12.256Z,20.8
2018-04-28T10:12:14.669Z,20.7
2018-04-28T10:13:17.084Z,20.5
2018-04-28T10:14:19.774Z,20.9
2018-04-28T10:15:22.168Z,20.8
2018-04-28T10:16:24.571Z,21
2018-04-28T10:17:27.249Z,21
2018-04-28T10:18:29.637Z,21.2
2018-04-28T10:19:32.042Z,21.6
2018-04-28T10:20:34.439Z,21.5
2018-04-28T10:21:36.855Z,21.2
2018-04-28T10:22:39.265Z,21.5
2018-04-28T10:23:41.667Z,21.8
2018-04-28T10:24:44.345Z,21.5
2018-04-28T10:25:47.049Z,21.4
2018-04-28T10:26:49.451Z,21.3
2018-04-28T10:27:51.850Z,21.3
2018-04-28T10:28:54.543Z,21.2
2018-04-28T10:29:57.324Z,21.4
2018-04-28T10:30:59.735Z,21.5
2018-04-28T10:32:02.813Z,21.5
2018-04-28T10:33:05.208Z,21.4
2018-04-28T10:34:07.610Z,21.6
2018-04-28T10:35:10.002Z,21.6
2018-04-28T10:36:12.407Z,21.7
2018-04-28T10:37:14.808Z,21.6
2018-04-28T10:38:17.218Z,21.6
2018-04-28T10:39:19.618Z,21.6
2018-04-28T10:40:22.031Z,21.7
2018-04-28T10:41:24.429Z,21.9
2018-04-28T10:42:27.099Z,22.5
2018-04-28T10:43:29.510Z,22
2018-04-28T10:44:31.915Z,22.1
2018-04-28T10:45:34.314Z,22.2
2018-04-28T10:46:36.707Z,22
2018-04-28T10:47:39.612Z,22.1
2018-04-28T10:48:42.019Z,21.9
2018-04-28T10:49:44.730Z,22
2018-04-28T10:50:47.134Z,22.5
2018-04-28T10:51:49.815Z,22.3
2018-04-28T10:52:52.215Z,22.3
2018-04-28T10:53:55.431Z,22.6
2018-04-28T10:54:57.609Z,22.8
2018-04-28T10:56:00.011Z,22.6
2018-04-28T10:57:02.403Z,22.1
2018-04-28T10:58:04.817Z,22.4
2018-04-28T10:59:08.083Z,22
2018-04-28T11:00:10.492Z,22.2
2018-04-28T11:01:12.888Z,22.4
2018-04-28T11:02:15.284Z,22.4
2018-04-28T11:03:17.695Z,22.5
2018-04-28T11:04:20.105Z,22.6
2018-04-28T11:05:22.501Z,22.5
2018-04-28T11:06:24.904Z,22
2018-04-28T11:07:27.309Z,22.7
2018-04-28T11:08:29.723Z,22.2
2018-04-28T11:09:32.123Z,22
2018-04-28T11:10:34.527Z,22.6
2018-04-28T11:11:36.922Z,22.9
2018-04-28T11:12:40.007Z,22.4
2018-04-28T11:13:42.415Z,22.7
2018-04-28T11:14:44.816Z,22.5
2018-04-28T11:15:47.221Z,22.7
2018-04-28T11:16:49.630Z,22
2018-04-28T11:17:52.302Z,21.5
2018-04-28T11:18:54.712Z,21.1
2018-04-28T11:19:57.487Z,21.3
2018-04-28T11:21:00.118Z,21.3
2018-04-28T11:22:03.184Z,21.7
2018-04-28T11:23:05.581Z,21.8
2018-04-28T11:24:08.262Z,21.6
2018-04-28T11:25:11.052Z,21.6
2018-04-28T11:26:13.447Z,21.7
2018-04-28T11:27:15.854Z,22.3
2018-04-28T11:28:18.542Z,21.6
2018-04-28T11:29:20.945Z,21.5
2018-04-28T11:30:23.627Z,21.4
2018-04-28T11:31:26.031Z,21.5
2018-04-28T11:32:28.420Z,21.9
2018-04-28T11:33:31.112Z,21.7
2018-04-28T11:34:33.513Z,21.5
2018-04-28T11:35:35.920Z,22
2018-04-28T11:36:38.714Z,22.1
2018-04-28T11:37:41.125Z,22
2018-04-28T11:38:43.827Z,21.9
2018-04-28T11:39:46.529Z,21.7
2018-04-28T11:40:48.935Z,21.1
2018-04-28T11:41:51.311Z,21.1
2018-04-28T11:42:53.720Z,20.9
2018-04-28T11:43:56.126Z,20.9
2018-04-28T11:44:58.814Z,20.9
2018-04-28T11:46:01.510Z,20.9
2018-04-28T11:47:03.910Z,20.9
2018-04-28T11:48:06.589Z,20.4
2018-04-28T11:49:08.994Z,20.7
2018-04-28T11:50:11.394Z,20.6
2018-04-28T11:51:13.785Z,20.5
2018-04-28T11:52:16.188Z,20.3
2018-04-28T11:53:18.664Z,20.1
2018-04-28T11:54:20.979Z,20.3
2018-04-28T11:55:23.384Z,19.9
2018-04-28T11:56:25.775Z,20.3
2018-04-28T11:57:28.173Z,20.2
2018-04-28T11:58:30.585Z,20.2
2018-04-28T11:59:33.265Z,19.8
2018-04-28T12:00:35.654Z,19.9
2018-04-28T12:01:38.055Z,19.7
2018-04-28T12:02:40.510Z,19.9
2018-04-28T12:03:42.855Z,20
2018-04-28T12:04:45.258Z,20.2
2018-04-28T12:05:48.075Z,20.3
2018-04-28T12:06:50.447Z,20.4
2018-04-28T12:07:53.142Z,20.4
2018-04-28T12:08:55.536Z,20.2
2018-04-28T12:09:58.216Z,20.4
2018-04-28T12:11:00.612Z,20.3
2018-04-28T12:12:03.394Z,20.1
2018-04-28T12:13:05.792Z,20
2018-04-28T12:14:08.205Z,20
2018-04-28T12:15:10.595Z,20
2018-04-28T12:16:12.999Z,20.1
2018-04-28T12:17:15.697Z,20.6
2018-04-28T12:18:18.752Z,21
2018-04-28T12:19:21.150Z,21.1
2018-04-28T12:20:23.839Z,21.1
2018-04-28T12:21:26.229Z,21
2018-04-28T12:22:28.643Z,21.2
2018-04-28T12:23:31.045Z,21.2
2018-04-28T12:24:33.431Z,21.7
2018-04-28T12:25:35.842Z,21.7
2018-04-28T12:26:38.519Z,21.6
2018-04-28T12:27:40.908Z,21.6
2018-04-28T12:28:43.698Z,21.3
2018-04-28T12:29:46.540Z,21.5
2018-04-28T12:30:49.293Z,21.3
2018-04-28T12:31:52.089Z,20.9
2018-04-28T12:32:54.488Z,20.9
2018-04-28T12:33:57.165Z,20.7
2018-04-28T12:34:59.843Z,20.7
2018-04-28T12:36:03.031Z,20.5
2018-04-28T12:37:05.402Z,20.2
2018-04-28T12:38:07.783Z,20.2
2018-04-28T12:39:10.168Z,20.3
2018-04-28T12:40:13.147Z,20.4
2018-04-28T12:41:16.119Z,20.2
2018-04-28T12:42:18.518Z,19.9
2018-04-28T12:43:20.914Z,20.1
2018-04-28T12:44:23.310Z,19.9
2018-04-28T12:45:25.709Z,19.9
2018-04-28T12:46:28.100Z,19.9
2018-04-28T12:47:30.496Z,19.9
2018-04-28T12:48:32.896Z,19.9
2018-04-28T12:49:35.566Z,19.9
2018-04-28T12:50:38.478Z,19.8
2018-04-28T12:51:40.830Z,19.6
2018-04-28T12:52:43.616Z,19.6
2018-04-28T12:53:46.293Z,19.5
2018-04-28T12:54:48.687Z,19.3
2018-04-28T12:55:51.091Z,19.4
2018-04-28T12:56:53.769Z,19.4
2018-04-28T12:57:56.167Z,19.5
2018-04-28T12:58:58.563Z,19.4
2018-04-28T13:00:00.962Z,19.2
2018-04-28T13:01:03.356Z,19.2
2018-04-28T13:02:05.759Z,19.7
2018-04-28T13:03:08.158Z,20.2
2018-04-28T13:04:10.836Z,20.1
2018-04-28T13:05:13.238Z,20.5
2018-04-28T13:06:15.671Z,20.6
2018-04-28T13:07:18.140Z,20.7
2018-04-28T13:08:20.594Z,20.4
2018-04-28T13:09:23.051Z,20.1
2018-04-28T13:10:25.508Z,19.7
2018-04-28T13:11:28.248Z,19.9
2018-04-28T13:12:31.091Z,19.9
2018-04-28T13:13:33.541Z,19.8
2018-04-28T13:14:36.296Z,20.1
2018-04-28T13:15:38.752Z,20.3
2018-04-28T13:16:41.201Z,20.4
2018-04-28T13:17:44.047Z,20.3
2018-04-28T13:18:46.494Z,20.3
2018-04-28T13:19:49.238Z,20.4
2018-04-28T13:20:51.698Z,20.4
2018-04-28T13:21:54.434Z,20.4
2018-04-28T13:22:57.168Z,20.4
2018-04-28T13:23:59.631Z,20.3
2018-04-28T13:25:02.078Z,20.1
2018-04-28T13:26:04.533Z,20
2018-04-28T13:27:06.986Z,20.1
2018-04-28T13:28:09.810Z,20
2018-04-28T13:29:12.357Z,20
2018-04-28T13:30:14.728Z,20.1
2018-04-28T13:31:17.190Z,20.1
2018-04-28T13:32:19.654Z,20.2
2018-04-28T13:33:22.102Z,20.2
2018-04-28T13:34:24.853Z,20.5
2018-04-28T13:35:27.308Z,20.5
2018-04-28T13:36:30.213Z,20.7
2018-04-28T13:37:32.671Z,20.7
2018-04-28T13:38:35.134Z,20.9
2018-04-28T13:39:37.875Z,21
2018-04-28T13:40:40.636Z,20.8
2018-04-28T13:41:43.069Z,21
2018-04-28T13:42:45.525Z,20.8
2018-04-28T13:43:47.988Z,20.5
2018-04-28T13:44:50.441Z,20.5
2018-04-28T13:45:52.899Z,20.2
2018-04-28T13:46:55.624Z,20.2
2018-04-28T13:47:58.076Z,20.2
2018-04-28T13:49:00.520Z,20.2
2018-04-28T13:50:03.272Z,20.1
2018-04-28T13:51:05.720Z,20
2018-04-28T13:52:08.459Z,20.1
2018-04-28T13:53:11.200Z,19.8
2018-04-28T13:54:13.652Z,19.9
2018-04-28T13:55:16.403Z,19.9
2018-04-28T13:56:18.858Z,19.8
2018-04-28T13:57:21.615Z,19.9
2018-04-28T13:58:24.073Z,19.8
2018-04-28T13:59:26.516Z,19.7
2018-04-28T14:00:28.977Z,19.6
2018-04-28T14:01:31.425Z,19.6
2018-04-28T14:02:33.895Z,19.6
2018-04-28T14:03:36.357Z,19.5
2018-04-28T14:04:38.804Z,19.7
2018-04-28T14:05:41.246Z,19.6
2018-04-28T14:06:44.092Z,19.3
2018-04-28T14:07:46.823Z,19.4